CA-0462 weather

CLOSED Montreal / Vieux Port
Quebec, Canada

Public forecast

Using degrees Celsius for public forecast. Weather courtesy of forecast.io.

METAR (pilot weather report)

Closest report is MontrĂ©al / Saint-Hubert Airport, 5.5 nm (10.2 km) E. Retrieved 2019/09/23 16:39 UTC (0 seconds ago):

CYHU 231639Z AUTO 24015KT 9SM BKN013 OVC021 21/20 A2965 RMK SLP040 DENSITY ALT 1100FT

TAF (pilot weather forecast)

Closest forecast is MontrĂ©al / Saint-Hubert Airport, 5.5 nm (10.2 km) E. Retrieved 2019/09/23 12:42 UTC (4 hours ago):

TAF CYHU 231138Z 2312/2412 25015G25KT P6SM -SHRA BKN040 OVC100 TEMPO 2312/2314 5SM -SHRA BR BKN020 OVC040 FM231400 23012G22KT P6SM OVC030 TEMPO 2314/2316 5SM -SHRA BR OVC020 FM231600 23012G22KT 5SM -SHRA BR SCT008 OVC020 TEMPO 2316/2322 P6SM NSW OVC025 FM232200 22010G20KT 4SM -SHRA BR SCT008 OVC020 TEMPO 2322/2403 P6SM NSW PROB30 2322/2401 VRB20G35KT 2SM +TSRA BR OVC008CB FM240300 23010KT 5SM -SHRA BR OVC008 RMK FCST BASED ON AUTO OBS. NXT FCST BY 231800Z